createdAt,value
2022-12-27T00:01:47.922Z,4.30
2022-12-27T00:04:16.296Z,4.50
2022-12-27T00:06:44.725Z,4.90
2022-12-27T00:09:13.193Z,4.03
2022-12-27T00:11:41.688Z,4.30
2022-12-27T00:14:11.876Z,4.30
2022-12-27T00:16:40.591Z,3.83
2022-12-27T00:19:10.365Z,3.57
2022-12-27T00:21:39.045Z,3.70
2022-12-27T00:24:07.676Z,3.60
2022-12-27T00:26:36.750Z,4.07
2022-12-27T00:29:05.238Z,3.90
2022-12-27T00:31:34.467Z,3.73
2022-12-27T00:34:05.756Z,3.90
2022-12-27T00:36:36.205Z,3.73
2022-12-27T00:39:04.873Z,4.40
2022-12-27T00:41:33.732Z,4.13
2022-12-27T00:44:02.165Z,3.90
2022-12-27T00:46:30.528Z,4.30
2022-12-27T00:48:58.966Z,4.30
2022-12-27T00:51:28.220Z,4.03
2022-12-27T00:53:58.195Z,3.47
2022-12-27T00:56:28.069Z,4.17
2022-12-27T00:58:56.882Z,3.80
2022-12-27T01:01:27.293Z,3.83
2022-12-27T01:03:56.045Z,3.30
2022-12-27T01:06:28.894Z,3.67
2022-12-27T01:08:59.141Z,3.47
2022-12-27T01:11:30.902Z,3.20
2022-12-27T01:14:00.368Z,3.73
2022-12-27T01:16:30.430Z,2.93
2022-12-27T01:19:00.405Z,3.10
2022-12-27T01:21:31.114Z,3.07
2022-12-27T01:24:01.272Z,2.97
2022-12-27T01:26:29.815Z,3.40
2022-12-27T01:28:58.364Z,3.07
2022-12-27T01:31:29.030Z,3.27
2022-12-27T01:33:59.457Z,2.77
2022-12-27T01:36:28.962Z,3.50
2022-12-27T01:38:57.728Z,2.83
2022-12-27T01:41:47.550Z,3.37
2022-12-27T01:44:49.494Z,3.43
2022-12-27T01:47:28.394Z,3.63
2022-12-27T01:50:08.031Z,3.83
2022-12-27T01:52:39.969Z,3.13
2022-12-27T01:55:14.939Z,3.13
2022-12-27T01:57:45.091Z,2.93
2022-12-27T02:00:14.044Z,3.67
2022-12-27T02:02:43.020Z,3.63
2022-12-27T02:05:12.758Z,2.37
2022-12-27T02:08:00.324Z,2.47
2022-12-27T02:10:30.418Z,2.73
2022-12-27T02:13:01.968Z,2.53
2022-12-27T02:15:30.431Z,2.97
2022-12-27T02:17:58.939Z,2.40
2022-12-27T02:20:32.408Z,2.90
2022-12-27T02:23:59.022Z,2.70
2022-12-27T02:26:53.484Z,2.50
2022-12-27T02:29:39.384Z,3.00
2022-12-27T02:32:10.375Z,2.63
2022-12-27T02:34:58.009Z,2.83
2022-12-27T02:37:31.953Z,2.90
2022-12-27T02:40:22.889Z,2.50
2022-12-27T02:43:10.916Z,2.30
2022-12-27T02:46:03.433Z,2.37
2022-12-27T02:48:49.496Z,3.43
2022-12-27T02:51:49.927Z,2.17
2022-12-27T02:54:36.658Z,1.87
2022-12-27T02:57:12.727Z,2.70
2022-12-27T03:00:23.473Z,3.00
2022-12-27T03:03:24.748Z,2.07
2022-12-27T03:06:31.480Z,2.73
2022-12-27T03:09:06.050Z,2.73
2022-12-27T03:12:02.328Z,3.27
2022-12-27T03:14:54.216Z,2.13
2022-12-27T03:17:29.355Z,2.87
2022-12-27T03:20:21.939Z,2.93
2022-12-27T03:23:11.235Z,3.13
2022-12-27T03:25:41.733Z,3.20
2022-12-27T03:28:35.865Z,3.30
2022-12-27T03:31:25.667Z,2.90
2022-12-27T03:34:04.745Z,3.37
2022-12-27T03:36:52.932Z,2.73
2022-12-27T03:39:27.379Z,3.13
2022-12-27T03:42:19.000Z,3.03
2022-12-27T03:44:47.554Z,3.40
2022-12-27T03:47:23.509Z,3.67
2022-12-27T03:49:55.841Z,3.30
2022-12-27T03:52:29.876Z,3.00
2022-12-27T03:54:59.523Z,3.83
2022-12-27T03:57:29.004Z,3.53
2022-12-27T03:59:57.627Z,3.10
2022-12-27T04:02:26.515Z,3.40
2022-12-27T04:04:55.123Z,3.10
2022-12-27T04:07:24.726Z,3.50
2022-12-27T04:10:10.622Z,3.20
2022-12-27T04:12:56.804Z,3.63
2022-12-27T04:15:42.722Z,3.07
2022-12-27T04:18:28.945Z,3.60
2022-12-27T04:21:15.015Z,3.20
2022-12-27T04:24:02.152Z,3.30
2022-12-27T04:26:48.133Z,3.40
2022-12-27T04:29:34.054Z,3.63
2022-12-27T04:32:19.948Z,3.40
2022-12-27T04:34:48.364Z,3.40
2022-12-27T04:37:19.106Z,3.23
2022-12-27T04:40:10.889Z,4.40
2022-12-27T04:42:56.806Z,3.33
2022-12-27T04:45:42.613Z,3.17
2022-12-27T04:48:31.547Z,3.13
2022-12-27T04:51:18.234Z,3.43
2022-12-27T04:54:04.100Z,3.90
2022-12-27T04:56:33.662Z,3.63
2022-12-27T04:59:19.579Z,3.70
2022-12-27T05:02:05.223Z,3.10
2022-12-27T05:04:35.861Z,3.37
2022-12-27T05:07:20.160Z,3.40
2022-12-27T05:10:05.730Z,3.40
2022-12-27T05:12:52.796Z,3.43
2022-12-27T05:15:21.109Z,4.00
2022-12-27T05:17:49.458Z,4.17
2022-12-27T05:20:17.782Z,3.70
2022-12-27T05:23:03.894Z,3.33
2022-12-27T05:25:38.637Z,3.67
2022-12-27T05:28:10.579Z,4.23
2022-12-27T05:30:40.376Z,3.87
2022-12-27T05:33:08.942Z,3.40
2022-12-27T05:35:37.725Z,3.90
2022-12-27T05:38:06.264Z,3.80
2022-12-27T05:40:35.012Z,4.13
2022-12-27T05:43:04.891Z,5.37
2022-12-27T05:45:34.770Z,4.50
2022-12-27T05:48:03.080Z,4.40
2022-12-27T05:50:31.701Z,4.10
2022-12-27T05:53:00.037Z,3.53
2022-12-27T05:55:28.453Z,4.20
2022-12-27T05:57:56.786Z,3.63
2022-12-27T06:00:25.167Z,4.10
2022-12-27T06:02:55.248Z,3.63
2022-12-27T06:05:23.713Z,3.90
2022-12-27T06:07:52.159Z,4.30
2022-12-27T06:10:20.598Z,5.00
2022-12-27T06:12:49.005Z,4.40
2022-12-27T06:15:17.491Z,4.50
2022-12-27T06:17:45.824Z,4.60
2022-12-27T06:20:15.353Z,4.63
2022-12-27T06:22:44.180Z,3.80
2022-12-27T06:25:14.388Z,4.70
2022-12-27T06:27:43.371Z,4.27
2022-12-27T06:30:13.132Z,4.23
2022-12-27T06:32:41.436Z,4.53
2022-12-27T06:35:11.219Z,4.53
2022-12-27T06:37:41.218Z,3.70
2022-12-27T06:40:10.742Z,3.90
2022-12-27T06:42:39.277Z,4.10
2022-12-27T06:45:09.484Z,4.33
2022-12-27T06:47:37.896Z,4.50
2022-12-27T06:50:06.863Z,4.43
2022-12-27T06:52:35.356Z,6.23
2022-12-27T06:55:05.460Z,5.17
2022-12-27T06:57:33.843Z,5.83
2022-12-27T07:00:02.291Z,4.87
2022-12-27T07:02:31.138Z,5.57
2022-12-27T07:04:59.375Z,5.27
2022-12-27T07:07:27.803Z,5.53
2022-12-27T07:09:56.219Z,5.63
2022-12-27T07:12:25.975Z,6.67
2022-12-27T07:14:54.311Z,6.47
2022-12-27T07:17:22.690Z,6.47
2022-12-27T07:19:51.095Z,8.70
2022-12-27T07:22:19.684Z,7.40
2022-12-27T07:24:48.055Z,8.17
2022-12-27T07:27:16.496Z,8.70
2022-12-27T07:29:46.280Z,9.17
2022-12-27T07:32:14.717Z,9.10
2022-12-27T07:34:43.673Z,9.13
2022-12-27T07:37:12.069Z,9.93
2022-12-27T07:39:40.328Z,10.73
2022-12-27T07:42:09.008Z,10.80
2022-12-27T07:44:37.488Z,11.17
2022-12-27T07:47:07.210Z,11.10
2022-12-27T07:49:35.667Z,11.03
2022-12-27T07:52:04.111Z,12.17
2022-12-27T07:54:32.376Z,12.43
2022-12-27T07:57:00.789Z,12.27
2022-12-27T07:59:29.576Z,14.07
2022-12-27T08:02:07.647Z,12.47
2022-12-27T08:04:39.117Z,14.60
2022-12-27T08:07:12.861Z,13.20
2022-12-27T08:09:43.060Z,13.70
2022-12-27T08:12:13.491Z,13.03
2022-12-27T08:14:42.249Z,13.30
2022-12-27T08:17:17.444Z,13.30
2022-12-27T08:19:47.128Z,14.07
2022-12-27T08:22:16.863Z,13.80
2022-12-27T08:24:45.329Z,19.13
2022-12-27T08:27:13.983Z,18.43
2022-12-27T08:29:42.395Z,16.20
2022-12-27T08:32:10.809Z,15.27
2022-12-27T08:34:39.277Z,15.37
2022-12-27T08:37:09.425Z,16.40
2022-12-27T08:39:37.677Z,16.70
2022-12-27T08:42:06.333Z,14.87
2022-12-27T08:44:34.797Z,14.17
2022-12-27T08:47:04.531Z,14.43
2022-12-27T08:49:33.060Z,14.73
2022-12-27T08:52:01.422Z,13.83
2022-12-27T08:54:31.084Z,13.03
2022-12-27T08:56:59.552Z,12.73
2022-12-27T08:59:27.996Z,16.73
2022-12-27T09:01:56.582Z,11.73
2022-12-27T09:04:25.105Z,11.83
2022-12-27T09:06:53.560Z,9.50
2022-12-27T09:09:22.240Z,9.70
2022-12-27T09:11:52.020Z,9.93
2022-12-27T09:14:21.267Z,9.50
2022-12-27T09:16:49.600Z,8.77
2022-12-27T09:19:17.889Z,9.60
2022-12-27T09:21:46.602Z,10.17
2022-12-27T09:24:15.611Z,9.37
2022-12-27T09:26:44.049Z,9.47
2022-12-27T09:29:13.923Z,8.33
2022-12-27T09:31:42.382Z,7.37
2022-12-27T09:34:11.439Z,7.47
2022-12-27T09:36:40.803Z,6.80
2022-12-27T09:39:10.295Z,7.20
2022-12-27T09:42:45.024Z,7.20
2022-12-27T09:44:47.200Z,8.10
2022-12-27T09:47:20.479Z,8.73
2022-12-27T09:49:52.601Z,8.27
2022-12-27T09:52:25.874Z,8.40
2022-12-27T09:55:04.688Z,9.13
2022-12-27T09:57:38.424Z,8.63
2022-12-27T10:00:15.875Z,9.20
2022-12-27T10:02:45.852Z,7.90
2022-12-27T10:05:21.972Z,8.77
2022-12-27T10:08:00.831Z,6.60
2022-12-27T10:10:39.847Z,5.00
2022-12-27T10:13:24.691Z,4.27
2022-12-27T10:16:06.269Z,4.10
2022-12-27T10:18:45.948Z,4.43
2022-12-27T10:21:21.099Z,4.00
2022-12-27T10:23:55.359Z,5.17
2022-12-27T10:26:23.859Z,4.13
2022-12-27T10:28:57.575Z,4.40
2022-12-27T10:31:27.955Z,3.97
2022-12-27T10:33:56.362Z,3.77
2022-12-27T10:36:27.453Z,3.07
2022-12-27T10:38:56.118Z,3.30
2022-12-27T10:41:41.533Z,3.00
2022-12-27T10:44:12.670Z,3.33
2022-12-27T10:46:44.614Z,3.37
2022-12-27T10:49:24.457Z,4.87
2022-12-27T10:51:56.956Z,4.60
2022-12-27T10:54:27.114Z,3.73
2022-12-27T10:56:56.614Z,4.03
2022-12-27T10:59:26.375Z,3.53
2022-12-27T11:02:18.646Z,3.30
2022-12-27T11:05:01.997Z,3.80
2022-12-27T11:07:32.328Z,4.23
2022-12-27T11:10:10.297Z,4.97
2022-12-27T11:12:38.714Z,5.80
2022-12-27T11:15:18.655Z,5.87
2022-12-27T11:17:50.694Z,7.20
2022-12-27T11:20:22.824Z,7.87
2022-12-27T11:22:53.786Z,8.00
2022-12-27T11:25:22.830Z,8.73
2022-12-27T11:27:54.753Z,8.70
2022-12-27T11:30:26.158Z,8.50
2022-12-27T11:32:56.807Z,8.40
2022-12-27T11:35:25.383Z,8.37
2022-12-27T11:37:53.860Z,7.63
2022-12-27T11:40:26.549Z,7.50
2022-12-27T11:43:02.347Z,6.87
2022-12-27T11:45:37.864Z,6.53
2022-12-27T11:48:20.686Z,5.47
2022-12-27T11:51:03.598Z,5.83
2022-12-27T11:54:00.046Z,5.63
2022-12-27T11:56:30.043Z,4.00
2022-12-27T11:59:29.207Z,4.10
2022-12-27T12:02:27.582Z,4.77
2022-12-27T12:05:21.978Z,4.20
2022-12-27T12:08:05.059Z,4.00
2022-12-27T12:10:44.128Z,4.53
2022-12-27T12:13:39.513Z,3.80
2022-12-27T12:16:25.055Z,3.60
2022-12-27T12:19:13.088Z,3.53
2022-12-27T12:21:53.246Z,4.10
2022-12-27T12:24:51.034Z,3.97
2022-12-27T12:27:42.401Z,4.03
2022-12-27T12:30:27.432Z,3.77
2022-12-27T12:33:16.382Z,3.73
2022-12-27T12:36:07.293Z,3.63
2022-12-27T12:38:42.362Z,4.30
2022-12-27T12:41:30.900Z,3.27
2022-12-27T12:44:27.126Z,3.80
2022-12-27T12:47:05.675Z,2.53
2022-12-27T12:49:54.311Z,3.73
2022-12-27T12:52:46.874Z,3.93
2022-12-27T12:55:38.541Z,3.70
2022-12-27T12:58:26.984Z,3.57
2022-12-27T13:01:14.423Z,3.70
2022-12-27T13:04:12.915Z,3.67
2022-12-27T13:07:11.431Z,4.63
2022-12-27T13:09:56.601Z,4.07
2022-12-27T13:12:32.842Z,4.13
2022-12-27T13:15:20.526Z,3.63
2022-12-27T13:18:02.394Z,3.83
2022-12-27T13:20:49.513Z,3.80
2022-12-27T13:23:28.976Z,3.10
2022-12-27T13:26:08.161Z,3.47
2022-12-27T13:28:44.613Z,3.17
2022-12-27T13:31:30.052Z,3.17
2022-12-27T13:34:08.872Z,3.57
2022-12-27T13:37:02.445Z,3.23
2022-12-27T13:39:42.377Z,3.43
2022-12-27T13:42:39.855Z,3.10
2022-12-27T13:45:23.325Z,3.70
2022-12-27T13:48:04.337Z,3.70
2022-12-27T13:51:08.261Z,2.93
2022-12-27T13:54:01.186Z,3.23
2022-12-27T13:59:49.117Z,2.40
2022-12-27T14:02:44.965Z,3.40
2022-12-27T14:05:37.862Z,2.80
2022-12-27T14:08:20.021Z,3.00
2022-12-27T14:10:55.240Z,3.17
2022-12-27T14:13:33.185Z,2.97
2022-12-27T14:16:23.716Z,3.00
2022-12-27T14:19:11.108Z,3.03
2022-12-27T14:22:10.259Z,3.33
2022-12-27T14:25:08.534Z,2.77
2022-12-27T14:28:01.908Z,3.20
2022-12-27T14:31:05.479Z,2.40
2022-12-27T14:33:58.677Z,3.20
2022-12-27T14:37:06.832Z,3.30
2022-12-27T14:40:23.579Z,3.23
2022-12-27T14:43:35.698Z,3.83
2022-12-27T14:46:31.603Z,3.00
2022-12-27T14:49:41.428Z,3.10
2022-12-27T14:52:51.479Z,3.30
2022-12-27T14:55:41.648Z,3.17
2022-12-27T14:58:37.129Z,2.97
2022-12-27T15:01:11.830Z,2.87
2022-12-27T15:03:55.586Z,3.33
2022-12-27T15:06:41.247Z,3.30
2022-12-27T15:09:24.036Z,3.40
2022-12-27T15:12:04.431Z,2.70
2022-12-27T15:14:51.951Z,2.90
2022-12-27T15:17:27.623Z,2.87
2022-12-27T15:20:13.298Z,2.30
2022-12-27T15:22:53.419Z,3.27
2022-12-27T15:25:31.124Z,2.70
2022-12-27T15:28:08.069Z,2.07
2022-12-27T15:30:45.171Z,3.00
2022-12-27T15:33:22.975Z,3.30
2022-12-27T15:36:02.050Z,2.53
2022-12-27T15:38:54.052Z,2.80
2022-12-27T15:41:33.819Z,2.60
2022-12-27T15:44:17.255Z,3.53
2022-12-27T15:47:21.549Z,3.80
2022-12-27T15:50:28.232Z,3.50
2022-12-27T15:53:11.812Z,3.17
2022-12-27T15:56:10.815Z,3.20
2022-12-27T15:58:41.146Z,2.83
2022-12-27T16:01:29.881Z,3.27
2022-12-27T16:03:59.792Z,3.33
2022-12-27T16:06:51.731Z,3.17
2022-12-27T16:09:35.616Z,3.67
2022-12-27T16:12:09.552Z,3.63
2022-12-27T16:14:41.144Z,3.70
2022-12-27T16:17:31.120Z,3.60
2022-12-27T16:20:13.178Z,4.00
2022-12-27T16:22:44.631Z,3.53
2022-12-27T16:25:34.495Z,3.77
2022-12-27T16:28:07.718Z,3.27
2022-12-27T16:30:49.141Z,4.00
2022-12-27T16:33:38.633Z,4.03
2022-12-27T16:36:15.355Z,3.00
2022-12-27T16:38:49.001Z,3.33
2022-12-27T16:41:33.801Z,4.20
2022-12-27T16:44:15.914Z,3.23
2022-12-27T16:47:01.699Z,3.73
2022-12-27T16:49:55.627Z,3.93
2022-12-27T16:52:54.101Z,4.13
2022-12-27T16:55:52.173Z,4.00
2022-12-27T16:58:33.156Z,4.47
2022-12-27T17:01:03.129Z,3.27
2022-12-27T17:03:45.083Z,4.43
2022-12-27T17:06:56.016Z,3.70
2022-12-27T17:09:42.456Z,3.97
2022-12-27T17:12:23.578Z,3.40
2022-12-27T17:15:00.307Z,3.37
2022-12-27T17:17:29.966Z,3.40
2022-12-27T17:20:03.704Z,4.33
2022-12-27T17:22:35.235Z,5.13
2022-12-27T17:25:04.852Z,4.70
2022-12-27T17:28:00.998Z,4.13
2022-12-27T17:30:38.075Z,4.07
2022-12-27T17:33:22.841Z,4.00
2022-12-27T17:36:23.762Z,4.47
2022-12-27T17:39:04.352Z,4.83
2022-12-27T17:41:57.858Z,6.27
2022-12-27T17:44:40.861Z,4.73
2022-12-27T17:47:26.939Z,4.93
2022-12-27T17:49:59.022Z,5.33
2022-12-27T17:52:46.254Z,5.17
2022-12-27T17:55:37.440Z,5.03
2022-12-27T17:58:08.217Z,4.97
2022-12-27T18:00:41.602Z,5.23
2022-12-27T18:03:13.804Z,4.77
2022-12-27T18:05:44.815Z,4.53
2022-12-27T18:08:26.061Z,4.33
2022-12-27T18:10:54.554Z,4.23
2022-12-27T18:13:26.587Z,4.70
2022-12-27T18:15:55.546Z,4.60
2022-12-27T18:18:28.157Z,4.20
2022-12-27T18:20:59.789Z,5.17
2022-12-27T18:23:29.785Z,4.73
2022-12-27T18:26:09.236Z,4.47
2022-12-27T18:28:41.378Z,4.93
2022-12-27T18:31:15.545Z,4.77
2022-12-27T18:33:46.403Z,5.33
2022-12-27T18:36:20.783Z,5.03
2022-12-27T18:38:55.890Z,4.30
2022-12-27T18:41:25.971Z,4.10
2022-12-27T18:44:00.131Z,3.90
2022-12-27T18:46:31.045Z,4.13
2022-12-27T18:48:59.744Z,4.53
2022-12-27T18:51:33.816Z,3.90
2022-12-27T18:54:04.111Z,3.50
2022-12-27T18:56:34.011Z,3.60
2022-12-27T18:59:19.459Z,4.03
2022-12-27T19:01:48.972Z,4.07
2022-12-27T19:04:25.954Z,6.33
2022-12-27T19:06:57.965Z,6.20
2022-12-27T19:09:29.892Z,4.23
2022-12-27T19:12:00.960Z,4.00
2022-12-27T19:14:43.653Z,3.53
2022-12-27T19:17:19.609Z,4.40
2022-12-27T19:19:50.308Z,4.10
2022-12-27T19:22:34.474Z,2.93
2022-12-27T19:25:06.046Z,4.07
2022-12-27T19:27:34.717Z,3.63
2022-12-27T19:30:03.283Z,4.40
2022-12-27T19:32:35.636Z,4.80
2022-12-27T19:35:06.111Z,3.67
2022-12-27T19:37:35.867Z,5.03
2022-12-27T19:40:06.729Z,5.63
2022-12-27T19:42:36.094Z,4.80
2022-12-27T19:45:04.513Z,4.17
2022-12-27T19:47:34.864Z,3.40
2022-12-27T19:50:04.381Z,3.30
2022-12-27T19:52:32.938Z,3.27
2022-12-27T19:55:05.856Z,3.30
2022-12-27T19:57:36.595Z,3.70
2022-12-27T20:00:12.313Z,3.33
2022-12-27T20:02:41.430Z,3.93
2022-12-27T20:05:10.819Z,3.20
2022-12-27T20:07:40.292Z,3.30
2022-12-27T20:10:12.223Z,2.90
2022-12-27T20:12:41.952Z,3.53
2022-12-27T20:15:10.772Z,3.00
2022-12-27T20:17:44.601Z,3.00
2022-12-27T20:20:13.804Z,2.73
2022-12-27T20:22:42.456Z,1.80
2022-12-27T20:25:11.610Z,3.40
2022-12-27T20:27:41.315Z,2.83
2022-12-27T20:30:10.817Z,3.67
2022-12-27T20:32:39.755Z,3.30
2022-12-27T20:35:08.924Z,3.17
2022-12-27T20:37:37.486Z,2.20
2022-12-27T20:40:07.563Z,3.53
2022-12-27T20:42:36.459Z,3.47
2022-12-27T20:45:07.050Z,3.27
2022-12-27T20:47:35.755Z,3.60
2022-12-27T20:50:04.530Z,3.90
2022-12-27T20:52:34.330Z,3.40
2022-12-27T20:55:02.749Z,3.43
2022-12-27T20:57:31.167Z,3.00
2022-12-27T20:59:59.455Z,4.00
2022-12-27T21:02:30.124Z,3.20
2022-12-27T21:04:58.507Z,3.13
2022-12-27T21:07:27.067Z,4.00
2022-12-27T21:09:55.568Z,4.03
2022-12-27T21:12:24.009Z,3.63
2022-12-27T21:14:52.485Z,3.20
2022-12-27T21:17:21.020Z,3.77
2022-12-27T21:19:50.718Z,3.50
2022-12-27T21:22:19.437Z,3.53
2022-12-27T21:24:47.785Z,3.53
2022-12-27T21:27:16.306Z,3.70
2022-12-27T21:29:44.936Z,3.57
2022-12-27T21:32:13.369Z,3.63
2022-12-27T21:34:41.842Z,3.53
2022-12-27T21:37:13.471Z,4.23
2022-12-27T21:39:42.355Z,3.60
2022-12-27T21:42:12.427Z,3.60
2022-12-27T21:44:40.890Z,4.00
2022-12-27T21:47:09.464Z,4.03
2022-12-27T21:49:40.481Z,3.93
2022-12-27T21:52:10.107Z,4.50
2022-12-27T21:54:38.530Z,3.70
2022-12-27T21:57:06.793Z,3.63
2022-12-27T21:59:35.205Z,4.03
2022-12-27T22:02:04.266Z,3.90
2022-12-27T22:04:35.544Z,3.83
2022-12-27T22:07:04.011Z,4.30
2022-12-27T22:09:33.509Z,3.63
2022-12-27T22:12:01.933Z,3.30
2022-12-27T22:14:36.671Z,4.30
2022-12-27T22:17:06.132Z,3.97
2022-12-27T22:19:34.560Z,3.83
2022-12-27T22:22:03.052Z,4.73
2022-12-27T22:24:31.521Z,3.20
2022-12-27T22:27:01.001Z,3.90
2022-12-27T22:29:35.009Z,3.90
2022-12-27T22:32:03.874Z,2.90
2022-12-27T22:34:32.451Z,3.13
2022-12-27T22:37:00.827Z,3.60
2022-12-27T22:39:29.678Z,3.37
2022-12-27T22:41:58.356Z,3.38
2022-12-27T22:44:28.532Z,3.43
2022-12-27T22:47:28.973Z,2.93
2022-12-27T22:49:47.646Z,3.30
2022-12-27T22:52:16.056Z,3.33
2022-12-27T22:55:04.645Z,3.25
2022-12-27T22:57:32.668Z,3.60
2022-12-27T23:00:02.564Z,3.20
2022-12-27T23:02:31.385Z,3.30
2022-12-27T23:05:00.017Z,3.53
2022-12-27T23:08:04.789Z,3.30
2022-12-27T23:10:17.032Z,3.40
2022-12-27T23:12:45.433Z,2.60
2022-12-27T23:15:15.210Z,2.83
2022-12-27T23:17:43.616Z,3.30
2022-12-27T23:20:12.869Z,2.67
2022-12-27T23:22:41.425Z,2.87
2022-12-27T23:25:10.034Z,3.90
2022-12-27T23:27:38.424Z,3.22
2022-12-27T23:30:07.734Z,2.88
2022-12-27T23:32:37.332Z,3.70
2022-12-27T23:35:06.055Z,4.10
2022-12-27T23:37:34.733Z,4.00
2022-12-27T23:40:03.189Z,4.23
2022-12-27T23:42:31.616Z,3.13
2022-12-27T23:45:00.158Z,4.32
2022-12-27T23:47:28.864Z,3.87
2022-12-27T23:49:58.432Z,4.20
2022-12-27T23:52:26.920Z,4.22
2022-12-27T23:54:55.193Z,5.18
2022-12-27T23:57:23.654Z,4.30
2022-12-27T23:59:54.528Z,4.22
